Time;durP1;ratioP1;P1;durP2;ratioP2;P2;SDS_P1;SDS_P2;PMS_P1;PMS_P2;Temp;Humidity;BMP_temperature;BMP_pressure;BME280_temperature;BME280_humidity;BME280_pressure;Samples;Min_cycle;Max_cycle;Signal;HPM_P1;HPM_P2
2023/07/08 00:00:24;;;;;;;5.38;4.50;;;16.40;77.40;;;;;;4975087;28;20035;-85
2023/07/08 00:02:52;;;;;;;8.75;4.97;;;16.30;77.10;;;;;;4992947;28;20029;-85
2023/07/08 00:05:21;;;;;;;5.68;4.40;;;16.30;77.40;;;;;;4992320;28;20049;-85
2023/07/08 00:07:47;;;;;;;6.20;4.72;;;16.30;78.20;;;;;;4981439;28;20026;-85
2023/07/08 00:10:19;;;;;;;5.93;4.80;;;16.20;78.30;;;;;;4975436;28;20034;-86
2023/07/08 00:12:47;;;;;;;5.32;4.10;;;16.20;78.30;;;;;;4974999;28;20034;-86
2023/07/08 00:15:14;;;;;;;5.65;4.30;;;16.20;78.10;;;;;;4994268;28;20366;-85
2023/07/08 00:17:40;;;;;;;6.53;4.63;;;16.20;78.80;;;;;;4969584;28;20038;-86
2023/07/08 00:20:19;;;;;;;7.38;4.97;;;16.10;78.70;;;;;;4975982;28;20049;-86
2023/07/08 00:22:49;;;;;;;5.40;4.45;;;16.20;79.00;;;;;;5000354;28;20034;-85
2023/07/08 00:25:21;;;;;;;7.30;5.32;;;16.10;79.10;;;;;;4976537;28;20437;-85
2023/07/08 00:27:48;;;;;;;6.25;4.45;;;16.00;79.20;;;;;;4976261;28;20045;-87
2023/07/08 00:30:36;;;;;;;6.93;4.97;;;16.00;78.50;;;;;;4999308;28;20544;-85
2023/07/08 00:33:02;;;;;;;6.72;4.88;;;15.90;78.40;;;;;;4975794;28;20092;-86
2023/07/08 00:35:44;;;;;;;5.55;4.70;;;15.90;78.20;;;;;;4968560;28;20058;-85
2023/07/08 00:38:29;;;;;;;6.40;4.68;;;15.80;79.20;;;;;;5001934;28;20401;-85
2023/07/08 00:41:18;;;;;;;5.47;4.45;;;15.80;79.30;;;;;;4999726;28;20447;-86
2023/07/08 00:43:53;;;;;;;6.85;5.15;;;15.80;80.00;;;;;;4971874;28;20446;-86
2023/07/08 00:46:31;;;;;;;5.20;4.70;;;15.70;79.80;;;;;;4983678;28;20031;-86
2023/07/08 00:49:24;;;;;;;4.78;4.03;;;15.70;80.10;;;;;;4990559;28;20026;-86
2023/07/08 00:51:50;;;;;;;6.18;4.57;;;15.70;80.40;;;;;;4994936;28;20700;-86
2023/07/08 00:54:18;;;;;;;8.00;4.90;;;15.70;80.60;;;;;;4959394;28;20477;-86
2023/07/08 00:56:58;;;;;;;5.75;5.10;;;15.60;80.70;;;;;;4961981;28;20608;-86
2023/07/08 00:59:45;;;;;;;7.18;4.90;;;15.60;80.90;;;;;;4989418;28;20057;-85
2023/07/08 01:02:14;;;;;;;5.72;4.80;;;15.60;81.00;;;;;;4978402;28;20039;-86
2023/07/08 01:04:43;;;;;;;8.82;4.80;;;15.50;81.00;;;;;;4981717;28;20501;-86
2023/07/08 01:07:11;;;;;;;5.07;4.47;;;15.50;81.00;;;;;;4972808;28;20120;-85
2023/07/08 01:09:42;;;;;;;5.10;4.60;;;15.50;81.30;;;;;;4984983;28;20041;-85
2023/07/08 01:12:13;;;;;;;6.80;5.20;;;15.40;82.30;;;;;;4967068;28;20034;-86
2023/07/08 01:14:42;;;;;;;6.53;4.75;;;15.40;83.00;;;;;;5005743;28;20030;-85
2023/07/08 01:17:13;;;;;;;5.55;4.68;;;15.40;83.40;;;;;;4975922;28;20030;-84
2023/07/08 01:19:44;;;;;;;8.20;5.00;;;15.30;83.60;;;;;;4957205;28;20382;-84
2023/07/08 01:22:10;;;;;;;5.53;4.65;;;15.30;83.30;;;;;;4975951;28;20065;-86
2023/07/08 01:24:40;;;;;;;6.53;5.38;;;15.20;83.50;;;;;;4974582;28;20408;-86
2023/07/08 01:27:08;;;;;;;6.10;4.68;;;15.20;83.60;;;;;;4959009;28;20027;-86
2023/07/08 01:29:37;;;;;;;5.22;4.72;;;15.10;83.70;;;;;;4974658;28;20084;-85
2023/07/08 01:32:03;;;;;;;6.60;5.05;;;15.10;84.70;;;;;;4968054;28;20623;-86
2023/07/08 01:34:31;;;;;;;5.30;4.40;;;15.00;84.60;;;;;;4993555;28;20164;-86
2023/07/08 01:36:58;;;;;;;8.25;5.13;;;15.00;84.90;;;;;;4997951;28;20023;-85
2023/07/08 01:39:26;;;;;;;9.90;5.30;;;15.00;85.50;;;;;;4978771;28;20109;-86
2023/07/08 01:41:53;;;;;;;8.85;5.50;;;14.90;85.90;;;;;;4987330;28;20045;-86
2023/07/08 01:44:26;;;;;;;7.55;5.07;;;14.90;85.80;;;;;;4967495;28;20041;-86
2023/07/08 01:46:54;;;;;;;6.18;5.00;;;15.00;86.00;;;;;;4982920;28;20039;-87
2023/07/08 01:49:20;;;;;;;7.35;5.70;;;14.90;86.20;;;;;;4975273;28;20724;-85
2023/07/08 01:51:48;;;;;;;8.68;6.00;;;14.80;86.10;;;;;;4985041;28;20041;-85
2023/07/08 01:54:13;;;;;;;6.15;4.82;;;14.80;86.50;;;;;;4950726;28;20133;-87
2023/07/08 01:56:39;;;;;;;9.82;5.40;;;14.70;86.60;;;;;;4980957;28;20107;-85
2023/07/08 01:59:05;;;;;;;6.78;5.35;;;14.70;87.30;;;;;;4992670;28;20138;-85
2023/07/08 02:01:31;;;;;;;7.00;5.72;;;14.70;87.40;;;;;;4981312;28;20378;-85
2023/07/08 02:03:57;;;;;;;6.28;5.40;;;14.70;87.20;;;;;;4958121;28;20053;-85
2023/07/08 02:06:22;;;;;;;9.50;5.68;;;14.70;87.30;;;;;;4975155;28;20026;-85
2023/07/08 02:08:50;;;;;;;6.10;5.47;;;14.70;87.40;;;;;;4975191;28;20034;-85
2023/07/08 02:11:16;;;;;;;5.38;4.88;;;14.70;87.40;;;;;;4977311;28;20061;-85
2023/07/08 02:13:42;;;;;;;7.13;4.53;;;14.70;87.50;;;;;;4993876;28;20064;-85
2023/07/08 02:16:08;;;;;;;6.47;4.80;;;14.80;87.80;;;;;;4965126;28;20043;-86
2023/07/08 02:18:34;;;;;;;6.38;5.00;;;14.70;89.20;;;;;;4994774;28;20097;-85
2023/07/08 02:21:00;;;;;;;6.07;5.30;;;14.60;89.70;;;;;;4961686;28;20497;-87
2023/07/08 02:23:27;;;;;;;5.70;4.82;;;14.60;89.70;;;;;;4984168;28;20074;-85
2023/07/08 02:25:58;;;;;;;6.05;5.45;;;14.60;90.00;;;;;;4980659;28;20057;-84
2023/07/08 02:28:24;;;;;;;5.63;5.03;;;14.60;90.00;;;;;;4973477;28;20038;-85
2023/07/08 02:30:50;;;;;;;9.07;5.55;;;14.60;89.80;;;;;;4965057;28;20031;-85
2023/07/08 02:33:17;;;;;;;8.23;5.50;;;14.60;89.70;;;;;;4976044;28;20061;-85
2023/07/08 02:35:44;;;;;;;9.35;5.95;;;14.60;89.80;;;;;;4982067;28;20110;-87
2023/07/08 02:38:11;;;;;;;5.72;5.13;;;14.50;90.50;;;;;;4990066;28;20058;-86
2023/07/08 02:40:37;;;;;;;6.00;5.22;;;14.50;90.60;;;;;;4974311;28;20034;-87
2023/07/08 02:43:03;;;;;;;5.93;5.13;;;14.50;90.80;;;;;;4990592;28;20064;-86
2023/07/08 02:45:28;;;;;;;6.88;5.53;;;14.40;91.00;;;;;;4964531;28;20400;-85
2023/07/08 02:47:54;;;;;;;6.28;5.40;;;14.40;91.00;;;;;;4966342;28;20030;-85
2023/07/08 02:50:20;;;;;;;7.05;4.80;;;14.30;90.50;;;;;;4957721;28;20121;-85
2023/07/08 02:52:46;;;;;;;6.20;5.03;;;14.30;90.80;;;;;;4991818;28;20088;-85
2023/07/08 02:55:12;;;;;;;6.22;5.32;;;14.20;90.80;;;;;;4987163;28;20038;-84
2023/07/08 02:57:37;;;;;;;8.13;5.72;;;14.20;90.90;;;;;;4977726;28;20564;-85
2023/07/08 03:00:04;;;;;;;6.15;5.35;;;14.20;91.10;;;;;;4961676;28;20505;-85
2023/07/08 03:02:30;;;;;;;9.15;5.82;;;14.20;91.10;;;;;;4977135;28;20493;-86
2023/07/08 03:05:00;;;;;;;6.90;5.18;;;14.20;91.10;;;;;;4964001;28;20515;-84
2023/07/08 03:07:26;;;;;;;7.63;5.93;;;14.20;91.50;;;;;;4974711;28;20125;-84
2023/07/08 03:09:52;;;;;;;5.88;5.28;;;14.20;91.80;;;;;;5008109;28;20111;-84
2023/07/08 03:12:17;;;;;;;7.90;5.50;;;14.10;92.20;;;;;;4976031;28;20060;-85
2023/07/08 03:14:44;;;;;;;6.05;5.40;;;14.10;92.10;;;;;;4981812;28;20038;-85
2023/07/08 03:17:11;;;;;;;6.28;5.40;;;14.10;92.50;;;;;;4990399;28;20034;-84
2023/07/08 03:19:37;;;;;;;8.15;6.07;;;14.00;92.10;;;;;;4980409;28;20497;-86
2023/07/08 03:22:05;;;;;;;8.82;6.35;;;14.00;92.30;;;;;;4944767;28;20109;-86
2023/07/08 03:24:31;;;;;;;6.57;5.07;;;14.00;92.40;;;;;;4989571;28;20052;-86
2023/07/08 03:27:04;;;;;;;7.68;5.35;;;14.00;92.50;;;;;;4981436;28;20038;-84
2023/07/08 03:29:32;;;;;;;8.20;6.15;;;14.00;92.40;;;;;;4975625;28;20018;-86
2023/07/08 03:31:57;;;;;;;6.95;5.55;;;14.00;92.60;;;;;;4982634;28;20026;-85
2023/07/08 03:34:24;;;;;;;8.38;5.50;;;14.00;92.70;;;;;;4971937;28;20084;-85
2023/07/08 03:36:50;;;;;;;6.65;5.50;;;14.00;92.80;;;;;;4982544;28;20034;-84
2023/07/08 03:39:22;;;;;;;6.55;5.70;;;14.00;93.10;;;;;;4995853;28;20097;-85
2023/07/08 03:41:49;;;;;;;6.68;5.50;;;14.00;93.10;;;;;;5008641;28;20119;-85
2023/07/08 03:44:16;;;;;;;7.05;5.78;;;14.10;93.20;;;;;;4986365;28;20041;-85
2023/07/08 03:46:50;;;;;;;6.43;5.53;;;14.10;93.10;;;;;;4970012;28;20138;-85
2023/07/08 03:49:21;;;;;;;8.25;5.25;;;14.10;93.40;;;;;;4973177;28;20162;-85
2023/07/08 03:51:49;;;;;;;5.70;5.10;;;14.20;93.80;;;;;;4958209;28;20035;-84
2023/07/08 03:54:18;;;;;;;8.52;5.03;;;14.20;94.10;;;;;;4973793;28;20539;-85
2023/07/08 03:56:44;;;;;;;6.78;4.40;;;14.20;94.30;;;;;;4973744;28;20039;-86
2023/07/08 03:59:12;;;;;;;6.60;4.95;;;14.10;94.40;;;;;;4951873;28;20058;-85
2023/07/08 04:01:40;;;;;;;6.45;5.30;;;14.10;94.60;;;;;;4967407;28;20454;-85
2023/07/08 04:04:11;;;;;;;6.70;5.07;;;14.10;94.60;;;;;;4973323;28;20101;-85
2023/07/08 04:06:37;;;;;;;7.00;5.22;;;14.10;94.70;;;;;;4991403;28;20045;-84
2023/07/08 04:09:03;;;;;;;5.70;4.85;;;14.10;94.80;;;;;;4989329;28;20034;-85
2023/07/08 04:11:29;;;;;;;6.55;4.90;;;14.00;94.90;;;;;;4977130;28;20067;-85
2023/07/08 04:13:55;;;;;;;6.47;5.22;;;14.00;94.90;;;;;;4998997;28;20026;-85
2023/07/08 04:16:25;;;;;;;6.55;5.15;;;14.10;94.90;;;;;;5001402;28;20033;-86
2023/07/08 04:18:53;;;;;;;5.90;5.10;;;14.10;95.00;;;;;;5012220;28;20022;-87
2023/07/08 04:21:20;;;;;;;6.80;5.82;;;14.10;95.20;;;;;;5007301;28;20035;-86
2023/07/08 04:23:45;;;;;;;6.95;6.25;;;14.10;95.80;;;;;;4993956;28;20018;-85
2023/07/08 04:26:11;;;;;;;7.95;5.28;;;14.10;96.30;;;;;;4990904;28;20097;-85
2023/07/08 04:28:37;;;;;;;7.00;5.50;;;14.00;96.50;;;;;;4966243;28;20556;-86
2023/07/08 04:31:03;;;;;;;8.27;5.50;;;14.00;96.50;;;;;;5002021;28;20033;-86
2023/07/08 04:33:29;;;;;;;5.75;5.15;;;14.00;96.50;;;;;;4992242;28;20040;-86
2023/07/08 04:35:55;;;;;;;7.30;5.40;;;14.10;96.70;;;;;;4964330;28;20485;-86
2023/07/08 04:38:24;;;;;;;6.35;5.40;;;14.10;96.80;;;;;;4980921;28;20034;-86
2023/07/08 04:40:51;;;;;;;6.95;5.72;;;14.20;96.70;;;;;;4975072;28;20109;-85
2023/07/08 04:43:36;;;;;;;7.13;5.72;;;14.30;97.30;;;;;;4999353;28;20052;-87
2023/07/08 04:46:02;;;;;;;5.65;5.05;;;14.30;97.60;;;;;;4982738;28;20487;-86
2023/07/08 04:48:27;;;;;;;7.15;5.70;;;14.30;97.20;;;;;;4978340;28;20029;-86
2023/07/08 04:50:53;;;;;;;7.28;5.18;;;14.40;97.50;;;;;;4984535;28;20068;-86
2023/07/08 04:53:19;;;;;;;6.13;5.15;;;14.50;97.80;;;;;;4983040;28;20105;-87
2023/07/08 04:55:52;;;;;;;6.13;5.43;;;14.50;97.80;;;;;;4976639;28;20403;-85
2023/07/08 04:58:17;;;;;;;6.93;5.28;;;14.60;97.90;;;;;;4977384;28;20077;-85
2023/07/08 05:00:44;;;;;;;6.30;5.43;;;14.70;98.50;;;;;;5001509;28;20071;-86
2023/07/08 05:03:09;;;;;;;6.45;5.00;;;14.70;98.10;;;;;;4954620;28;20065;-86
2023/07/08 05:05:35;;;;;;;6.65;5.13;;;14.80;98.00;;;;;;4968177;28;20062;-86
2023/07/08 05:08:01;;;;;;;6.43;5.45;;;14.90;97.90;;;;;;5005120;28;20105;-85
2023/07/08 05:10:27;;;;;;;6.78;5.13;;;14.90;98.60;;;;;;4959434;28;20085;-85
2023/07/08 05:12:53;;;;;;;6.75;4.72;;;15.00;97.80;;;;;;4970816;28;20035;-86
2023/07/08 05:15:19;;;;;;;7.10;5.45;;;15.10;97.70;;;;;;4968067;28;20034;-84
2023/07/08 05:17:44;;;;;;;6.63;5.30;;;15.20;97.50;;;;;;4963814;28;20382;-86
2023/07/08 05:20:13;;;;;;;5.50;4.97;;;15.30;97.40;;;;;;4975369;28;20051;-85
2023/07/08 05:22:39;;;;;;;5.60;4.82;;;15.40;96.60;;;;;;4997722;28;20030;-84
2023/07/08 05:25:06;;;;;;;6.07;5.13;;;15.60;96.90;;;;;;4976262;28;20030;-85
2023/07/08 05:27:35;;;;;;;8.07;5.18;;;15.70;97.30;;;;;;4959456;28;20038;-85
2023/07/08 05:30:05;;;;;;;7.28;5.40;;;15.80;97.10;;;;;;4990996;28;20083;-87
2023/07/08 05:32:32;;;;;;;7.00;5.30;;;15.90;95.30;;;;;;4978868;28;20027;-86
2023/07/08 05:34:58;;;;;;;6.72;5.07;;;16.00;96.40;;;;;;4963388;28;20030;-84
2023/07/08 05:37:25;;;;;;;5.53;5.03;;;16.30;96.40;;;;;;4994490;28;20038;-85
2023/07/08 05:39:54;;;;;;;5.90;4.80;;;16.70;96.20;;;;;;5004004;28;20409;-85
2023/07/08 05:42:21;;;;;;;8.95;5.03;;;17.10;95.80;;;;;;4982419;28;20634;-85
2023/07/08 05:44:47;;;;;;;6.93;4.93;;;17.60;95.70;;;;;;4963443;28;20034;-85
2023/07/08 05:47:14;;;;;;;5.47;4.80;;;18.10;94.20;;;;;;4948240;28;20508;-85
2023/07/08 05:49:40;;;;;;;10.68;5.00;;;18.50;93.70;;;;;;4975986;28;20030;-85
2023/07/08 05:52:10;;;;;;;6.53;5.50;;;19.10;92.10;;;;;;4960788;28;20037;-86
2023/07/08 05:54:41;;;;;;;6.40;5.78;;;19.50;91.70;;;;;;4996967;28;20030;-87
2023/07/08 05:57:09;;;;;;;7.30;5.45;;;19.80;91.50;;;;;;4990582;28;20473;-86
2023/07/08 05:59:35;;;;;;;7.88;5.40;;;20.20;91.00;;;;;;4985324;28;20034;-87
2023/07/08 06:02:02;;;;;;;6.22;5.60;;;20.50;90.10;;;;;;5001278;28;20869;-85
2023/07/08 06:04:37;;;;;;;5.53;4.88;;;20.70;89.90;;;;;;4996307;28;20044;-85
2023/07/08 06:07:03;;;;;;;8.52;5.35;;;21.00;89.30;;;;;;4978272;28;20069;-87
2023/07/08 06:09:29;;;;;;;6.20;4.63;;;21.40;89.40;;;;;;4969803;28;20640;-85
2023/07/08 06:11:55;;;;;;;6.15;4.60;;;21.90;88.00;;;;;;4988860;28;20443;-86
2023/07/08 06:14:21;;;;;;;6.30;5.03;;;22.10;83.50;;;;;;4937578;28;20026;-86
2023/07/08 06:16:46;;;;;;;8.32;4.88;;;22.30;78.10;;;;;;4971088;28;20030;-86
2023/07/08 06:19:14;;;;;;;6.50;4.30;;;22.40;81.40;;;;;;4958279;28;20043;-88
2023/07/08 06:21:40;;;;;;;5.10;4.60;;;22.60;74.20;;;;;;4961991;28;20046;-87
2023/07/08 06:24:07;;;;;;;5.07;4.57;;;22.80;77.40;;;;;;4991042;28;20493;-84
2023/07/08 06:26:32;;;;;;;5.78;4.75;;;23.10;79.50;;;;;;4987177;28;20031;-86
2023/07/08 06:28:58;;;;;;;11.35;5.20;;;23.40;75.50;;;;;;4993157;28;20026;-86
2023/07/08 06:31:24;;;;;;;7.22;5.15;;;23.60;68.70;;;;;;4983159;28;20051;-87
2023/07/08 06:33:50;;;;;;;5.72;4.72;;;23.90;67.80;;;;;;4973004;28;20173;-86
2023/07/08 06:36:17;;;;;;;9.90;4.97;;;24.00;65.10;;;;;;4996759;28;20034;-86
2023/07/08 06:38:42;;;;;;;7.38;4.95;;;24.30;67.70;;;;;;4987564;28;20034;-88
2023/07/08 06:41:08;;;;;;;5.55;4.50;;;24.50;64.00;;;;;;4969119;28;20417;-88
2023/07/08 06:43:34;;;;;;;7.53;5.03;;;24.70;61.50;;;;;;4996192;28;20124;-88
2023/07/08 06:46:09;;;;;;;5.60;4.43;;;24.50;61.10;;;;;;4962202;28;20749;-87
2023/07/08 06:48:35;;;;;;;6.10;5.18;;;24.60;62.20;;;;;;4975917;28;20038;-86
2023/07/08 06:51:01;;;;;;;8.15;5.07;;;24.90;60.00;;;;;;4975513;28;20081;-87
2023/07/08 06:53:26;;;;;;;5.97;5.07;;;25.10;60.10;;;;;;4981893;28;20503;-86
2023/07/08 06:55:52;;;;;;;6.85;4.75;;;25.10;60.10;;;;;;4959074;28;20031;-85
2023/07/08 06:58:18;;;;;;;11.52;5.35;;;25.30;58.90;;;;;;4992594;28;20057;-86
2023/07/08 07:00:45;;;;;;;7.40;4.53;;;25.60;60.60;;;;;;4961655;28;20022;-86
2023/07/08 07:03:12;;;;;;;6.95;4.38;;;26.30;58.40;;;;;;4997815;28;20050;-88
2023/07/08 07:05:39;;;;;;;5.10;3.83;;;26.70;58.00;;;;;;5003794;28;20037;-87
2023/07/08 07:08:07;;;;;;;5.22;4.72;;;27.10;57.60;;;;;;5008441;28;20037;-83
2023/07/08 07:10:33;;;;;;;5.78;4.57;;;27.30;54.40;;;;;;5002991;28;20034;-84
2023/07/08 07:13:00;;;;;;;5.40;4.45;;;27.50;56.50;;;;;;5007802;28;20107;-83
2023/07/08 07:15:25;;;;;;;6.00;4.97;;;27.90;56.30;;;;;;4990824;28;20124;-84
2023/07/08 07:17:51;;;;;;;5.85;4.70;;;28.10;53.50;;;;;;4990411;28;20036;-83
2023/07/08 07:20:17;;;;;;;6.20;4.65;;;28.00;53.10;;;;;;4991942;28;20046;-83
2023/07/08 07:22:43;;;;;;;6.57;4.47;;;27.80;54.50;;;;;;4974613;28;20058;-84
2023/07/08 07:25:09;;;;;;;8.80;4.57;;;27.40;52.40;;;;;;5002995;28;20046;-86
2023/07/08 07:27:35;;;;;;;7.72;4.70;;;27.30;54.30;;;;;;4992710;28;20026;-87
2023/07/08 07:30:01;;;;;;;6.18;4.80;;;27.50;55.90;;;;;;4989647;28;20026;-86
2023/07/08 07:32:29;;;;;;;6.22;4.70;;;27.80;54.70;;;;;;4994262;28;20526;-87
2023/07/08 07:34:57;;;;;;;4.95;4.43;;;27.60;51.50;;;;;;5011887;28;20403;-85
2023/07/08 07:37:23;;;;;;;8.93;4.03;;;27.30;53.30;;;;;;4993226;28;20034;-87
2023/07/08 07:39:49;;;;;;;5.75;4.13;;;27.20;52.40;;;;;;4991627;28;20041;-88
2023/07/08 07:42:18;;;;;;;7.43;4.13;;;26.80;52.60;;;;;;4981907;28;20030;-86
2023/07/08 07:44:45;;;;;;;7.38;4.10;;;26.80;51.70;;;;;;5015264;28;20066;-87
2023/07/08 07:47:12;;;;;;;6.78;4.35;;;26.70;53.60;;;;;;4969217;28;20034;-86
2023/07/08 07:49:38;;;;;;;4.68;3.80;;;26.80;53.30;;;;;;4995873;28;20026;-86
2023/07/08 07:52:04;;;;;;;6.65;4.20;;;26.90;54.10;;;;;;4987060;28;20023;-86
2023/07/08 07:54:31;;;;;;;7.55;4.90;;;27.10;55.10;;;;;;5001540;28;20401;-84
2023/07/08 07:56:56;;;;;;;5.25;3.78;;;27.20;52.40;;;;;;4970536;28;20030;-84
2023/07/08 07:59:23;;;;;;;4.47;3.65;;;27.30;51.00;;;;;;5013225;28;20052;-84
2023/07/08 08:01:52;;;;;;;4.55;3.70;;;27.40;52.20;;;;;;4994601;28;20033;-83
2023/07/08 08:04:17;;;;;;;5.18;4.15;;;27.40;54.30;;;;;;4982180;28;20514;-85
2023/07/08 08:06:43;;;;;;;6.60;3.80;;;27.60;52.60;;;;;;4963306;28;20042;-83
2023/07/08 08:09:09;;;;;;;3.58;3.13;;;27.80;49.30;;;;;;4992921;28;20034;-83
2023/07/08 08:11:35;;;;;;;4.65;3.80;;;27.90;48.60;;;;;;4965795;28;20073;-84
2023/07/08 08:14:01;;;;;;;5.82;4.15;;;28.10;49.80;;;;;;4979391;28;20105;-87
2023/07/08 08:16:27;;;;;;;5.03;3.47;;;28.50;53.00;;;;;;5010933;28;20034;-84
2023/07/08 08:18:53;;;;;;;4.88;4.07;;;28.90;48.60;;;;;;4995791;28;20066;-85
2023/07/08 08:21:18;;;;;;;4.47;3.97;;;29.00;46.70;;;;;;4974693;28;20034;-84
2023/07/08 08:23:44;;;;;;;4.60;3.70;;;29.40;46.70;;;;;;4970558;28;20565;-84
2023/07/08 08:26:10;;;;;;;4.70;3.45;;;29.40;45.10;;;;;;4968324;28;20489;-85
2023/07/08 08:28:35;;;;;;;5.32;3.78;;;29.20;44.40;;;;;;4986193;28;20065;-84
2023/07/08 08:31:01;;;;;;;6.68;3.65;;;29.00;45.30;;;;;;4949762;28;20122;-83
2023/07/08 08:33:27;;;;;;;4.40;3.80;;;29.10;45.50;;;;;;4974602;28;20081;-85
2023/07/08 08:35:53;;;;;;;3.25;2.95;;;29.10;45.00;;;;;;4973567;28;20627;-84
2023/07/08 08:38:19;;;;;;;3.47;3.17;;;29.50;46.70;;;;;;4974234;28;20030;-86
2023/07/08 08:40:45;;;;;;;3.95;3.55;;;29.90;44.90;;;;;;4992611;28;20031;-87
2023/07/08 08:43:39;;;;;;;4.63;3.67;;;30.00;45.30;;;;;;4974144;28;20045;-85
2023/07/08 08:46:32;;;;;;;3.78;3.38;;;30.20;43.20;;;;;;4996064;28;20481;-84
2023/07/08 08:49:36;;;;;;;4.85;3.45;;;29.90;43.90;;;;;;4992186;28;20030;-84
2023/07/08 08:52:02;;;;;;;5.32;3.45;;;30.00;45.50;;;;;;4926667;28;20048;-88
2023/07/08 08:54:30;;;;;;;4.50;3.38;;;30.10;42.50;;;;;;4959847;28;20125;-87
2023/07/08 08:57:13;;;;;;;5.65;3.85;;;29.80;42.80;;;;;;4997117;28;20109;-86
2023/07/08 08:59:49;;;;;;;4.95;4.03;;;29.70;43.50;;;;;;4983086;28;20041;-86
2023/07/08 09:02:40;;;;;;;7.20;3.95;;;29.50;44.30;;;;;;5006057;28;20049;-87
2023/07/08 09:05:09;;;;;;;5.22;4.00;;;29.20;44.00;;;;;;4996926;28;20385;-85
2023/07/08 09:08:10;;;;;;;5.32;4.10;;;28.80;42.20;;;;;;4980449;28;20396;-87
2023/07/08 09:10:50;;;;;;;6.65;3.70;;;28.70;44.30;;;;;;4988409;28;20139;-86
2023/07/08 09:13:27;;;;;;;4.68;3.88;;;28.40;45.90;;;;;;4970961;28;20022;-86
2023/07/08 09:16:29;;;;;;;5.15;3.90;;;28.40;45.40;;;;;;4991791;28;20026;-86
2023/07/08 09:19:23;;;;;;;5.70;3.90;;;28.30;44.30;;;;;;4997607;28;20048;-87
2023/07/08 09:21:51;;;;;;;4.45;3.63;;;28.20;46.30;;;;;;4994141;28;20037;-87
2023/07/08 09:24:35;;;;;;;4.03;3.58;;;28.30;44.60;;;;;;4997811;28;20053;-87
2023/07/08 09:27:02;;;;;;;5.20;3.63;;;28.10;45.00;;;;;;4989452;28;20068;-87
2023/07/08 09:29:29;;;;;;;6.45;3.67;;;28.20;45.10;;;;;;4975208;28;20034;-89
2023/07/08 09:31:55;;;;;;;5.55;4.10;;;28.20;45.60;;;;;;4957012;28;20126;-86
2023/07/08 09:34:35;;;;;;;5.43;4.03;;;28.30;46.10;;;;;;4938080;28;20031;-86
2023/07/08 09:37:01;;;;;;;4.55;3.78;;;28.30;44.70;;;;;;4989243;28;20054;-87
2023/07/08 09:39:29;;;;;;;6.22;3.65;;;28.30;44.10;;;;;;4973706;28;20564;-87
2023/07/08 09:41:55;;;;;;;4.68;3.88;;;28.30;44.20;;;;;;5000812;28;20030;-85
2023/07/08 09:44:33;;;;;;;3.58;3.28;;;28.30;44.00;;;;;;4967396;28;20041;-86
2023/07/08 09:46:59;;;;;;;3.97;3.15;;;28.30;44.20;;;;;;4973587;28;20066;-86
2023/07/08 09:49:33;;;;;;;7.25;4.00;;;28.30;44.20;;;;;;4972370;28;20082;-87
2023/07/08 09:52:00;;;;;;;5.70;3.78;;;28.30;44.60;;;;;;4960822;28;20023;-86
2023/07/08 09:54:26;;;;;;;6.20;3.70;;;28.30;44.60;;;;;;4969737;28;20727;-86
2023/07/08 09:57:00;;;;;;;6.43;5.28;;;28.30;44.00;;;;;;4987121;28;20057;-85
2023/07/08 09:59:31;;;;;;;8.20;4.00;;;28.30;47.80;;;;;;4971559;28;20034;-87
2023/07/08 10:02:03;;;;;;;4.38;3.65;;;28.30;43.60;;;;;;4997237;28;20708;-87
2023/07/08 10:04:29;;;;;;;4.55;3.90;;;28.30;45.40;;;;;;4984514;28;20768;-86
2023/07/08 10:06:55;;;;;;;3.78;3.40;;;28.30;44.40;;;;;;4977562;28;20045;-85
2023/07/08 10:09:25;;;;;;;3.88;3.47;;;28.30;42.60;;;;;;4973791;28;20034;-87
2023/07/08 10:12:08;;;;;;;3.35;3.05;;;28.40;44.50;;;;;;4975345;28;20038;-86
2023/07/08 10:14:49;;;;;;;4.45;3.08;;;28.40;42.20;;;;;;4958390;28;20672;-87
2023/07/08 10:17:18;;;;;;;3.33;3.03;;;28.40;40.70;;;;;;4969726;28;20118;-85
2023/07/08 10:19:44;;;;;;;3.63;2.90;;;28.40;43.00;;;;;;4961250;28;20029;-89
2023/07/08 10:22:22;;;;;;;6.00;3.72;;;28.40;44.70;;;;;;4974220;28;20077;-86
2023/07/08 10:25:02;;;;;;;5.57;3.35;;;28.40;42.20;;;;;;4982727;28;20031;-85
2023/07/08 10:27:40;;;;;;;4.10;3.63;;;28.30;41.00;;;;;;4997761;28;20038;-87
2023/07/08 10:30:06;;;;;;;5.68;3.30;;;28.10;43.90;;;;;;4967033;28;20031;-86
2023/07/08 10:32:53;;;;;;;6.28;3.90;;;28.10;42.60;;;;;;4958925;28;20730;-86
2023/07/08 10:35:28;;;;;;;4.07;3.63;;;28.10;44.90;;;;;;4992790;28;20398;-86
2023/07/08 10:38:13;;;;;;;4.22;3.15;;;28.30;42.50;;;;;;4991587;28;20037;-87
2023/07/08 10:40:49;;;;;;;4.53;3.40;;;28.40;42.90;;;;;;4985423;28;20088;-87
2023/07/08 10:43:23;;;;;;;4.50;3.20;;;28.40;42.80;;;;;;4985288;28;20649;-87
2023/07/08 10:45:54;;;;;;;4.88;3.20;;;28.40;41.70;;;;;;4982303;28;20106;-86
2023/07/08 10:48:38;;;;;;;4.25;3.45;;;28.40;40.90;;;;;;4967169;28;20035;-86
2023/07/08 10:51:04;;;;;;;4.63;3.40;;;28.40;41.60;;;;;;4974545;28;20030;-86
2023/07/08 10:53:36;;;;;;;5.68;3.70;;;28.30;41.60;;;;;;4966146;28;20600;-86
2023/07/08 10:56:20;;;;;;;4.60;3.72;;;28.40;42.60;;;;;;4989715;28;20061;-87
2023/07/08 10:59:31;;;;;;;5.15;3.20;;;28.40;45.00;;;;;;4935157;28;20133;-85
2023/07/08 11:02:11;;;;;;;3.60;3.25;;;28.40;45.10;;;;;;4996212;28;20054;-86
2023/07/08 11:04:37;;;;;;;4.07;3.67;;;28.50;42.50;;;;;;4998888;28;20033;-86
2023/07/08 11:07:13;;;;;;;4.20;3.80;;;28.50;41.80;;;;;;5001413;28;20110;-86
2023/07/08 11:09:44;;;;;;;4.30;3.50;;;28.50;44.50;;;;;;4988691;28;20026;-85
2023/07/08 11:12:25;;;;;;;3.90;3.42;;;28.50;45.70;;;;;;4993425;28;20023;-86
2023/07/08 11:15:34;;;;;;;4.65;4.00;;;28.50;41.50;;;;;;5002285;28;20027;-86
2023/07/08 11:18:11;;;;;;;4.35;3.42;;;28.50;43.10;;;;;;4913981;29;20091;-86
2023/07/08 11:20:41;;;;;;;4.15;3.50;;;28.40;42.00;;;;;;4917941;29;20124;-88
2023/07/08 11:23:32;;;;;;;4.22;3.58;;;28.50;43.80;;;;;;4974170;28;20034;-85
2023/07/08 11:26:33;;;;;;;4.00;3.60;;;28.60;42.80;;;;;;4996826;28;20030;-86
2023/07/08 11:29:00;;;;;;;3.97;3.28;;;28.50;41.60;;;;;;4972209;28;20034;-85
2023/07/08 11:31:31;;;;;;;4.30;3.75;;;28.60;42.10;;;;;;4986916;28;20125;-86
2023/07/08 11:33:57;;;;;;;5.25;3.35;;;28.70;40.70;;;;;;4980666;28;20044;-86
2023/07/08 11:36:24;;;;;;;3.58;3.25;;;28.50;41.40;;;;;;4972003;28;20412;-86
2023/07/08 11:38:55;;;;;;;4.72;3.58;;;28.50;41.00;;;;;;4972708;28;20035;-86
2023/07/08 11:41:28;;;;;;;4.25;3.28;;;28.60;41.10;;;;;;4991134;28;20608;-87
2023/07/08 11:44:05;;;;;;;4.20;3.42;;;28.60;39.80;;;;;;4974894;28;20030;-86
2023/07/08 11:46:34;;;;;;;4.10;3.65;;;28.60;41.50;;;;;;4994969;28;20054;-86
2023/07/08 11:49:10;;;;;;;3.63;3.13;;;28.70;39.60;;;;;;4970829;28;20081;-87
2023/07/08 11:51:41;;;;;;;4.40;3.42;;;28.70;38.70;;;;;;4991456;28;20050;-87
2023/07/08 11:54:27;;;;;;;3.40;3.10;;;28.80;41.00;;;;;;4991803;28;20041;-87
2023/07/08 11:57:09;;;;;;;7.45;3.35;;;28.80;40.20;;;;;;4992964;28;20075;-85
2023/07/08 11:59:40;;;;;;;5.50;3.63;;;29.00;40.90;;;;;;4986721;28;20429;-87
2023/07/08 12:02:15;;;;;;;4.00;3.33;;;29.10;43.30;;;;;;4973251;28;20133;-85
2023/07/08 12:05:03;;;;;;;3.88;3.33;;;29.30;43.80;;;;;;4956675;28;20041;-85
2023/07/08 12:07:53;;;;;;;6.32;3.35;;;29.60;45.10;;;;;;4982520;28;20042;-86
2023/07/08 12:10:35;;;;;;;4.97;3.28;;;29.90;45.20;;;;;;4992316;28;20093;-86
2023/07/08 12:13:01;;;;;;;4.28;3.38;;;30.10;39.80;;;;;;4985374;28;20030;-86
2023/07/08 12:15:32;;;;;;;3.38;2.97;;;30.00;37.90;;;;;;4968240;28;20038;-85
2023/07/08 12:18:18;;;;;;;3.88;3.42;;;30.00;38.30;;;;;;4954591;28;20069;-86
2023/07/08 12:21:01;;;;;;;3.58;2.88;;;29.90;38.90;;;;;;4991333;28;20061;-86
2023/07/08 12:23:28;;;;;;;4.20;3.15;;;29.80;38.60;;;;;;5009065;28;20029;-87
2023/07/08 12:25:55;;;;;;;4.40;3.22;;;29.90;38.70;;;;;;4961958;28;20117;-86
2023/07/08 12:28:22;;;;;;;2.85;2.65;;;30.00;38.10;;;;;;4988395;28;20034;-87
2023/07/08 12:30:49;;;;;;;3.45;3.15;;;30.20;39.10;;;;;;4969870;28;20035;-86
2023/07/08 12:33:21;;;;;;;5.53;3.63;;;30.30;37.80;;;;;;4990311;28;20030;-86
2023/07/08 12:35:48;;;;;;;4.88;3.55;;;30.50;38.50;;;;;;4978323;28;20026;-85
2023/07/08 12:38:28;;;;;;;3.50;3.15;;;30.20;36.00;;;;;;4984044;28;20449;-88
2023/07/08 12:41:00;;;;;;;3.30;3.00;;;30.30;36.70;;;;;;4994242;28;20407;-87
2023/07/08 12:43:27;;;;;;;3.63;3.08;;;30.60;42.00;;;;;;4972177;28;20093;-87
2023/07/08 12:45:52;;;;;;;6.70;2.78;;;30.70;37.40;;;;;;4992523;28;20034;-87
2023/07/08 12:48:18;;;;;;;4.90;3.15;;;30.90;36.10;;;;;;4956978;28;20039;-88
2023/07/08 12:50:44;;;;;;;3.40;3.10;;;31.10;35.50;;;;;;4974669;28;20504;-89
2023/07/08 12:53:12;;;;;;;5.22;3.45;;;31.30;34.80;;;;;;4981868;28;20054;-86
2023/07/08 12:55:41;;;;;;;5.60;3.42;;;31.30;34.90;;;;;;4980234;28;20037;-87
2023/07/08 12:58:16;;;;;;;3.45;3.13;;;31.50;35.50;;;;;;4991839;28;20493;-86
2023/07/08 13:00:42;;;;;;;3.85;3.25;;;31.60;34.90;;;;;;4998354;28;20026;-86